createdAt,value
2023-02-05T00:00:53.576Z,13.35
2023-02-05T00:03:20.300Z,13.52
2023-02-05T00:05:47.252Z,13.39
2023-02-05T00:08:14.700Z,13.59
2023-02-05T00:10:41.635Z,13.52
2023-02-05T00:13:09.189Z,13.25
2023-02-05T00:15:40.366Z,13.42
2023-02-05T00:18:07.316Z,13.65
2023-02-05T00:20:34.205Z,13.65
2023-02-05T00:23:01.062Z,13.49
2023-02-05T00:25:31.155Z,13.20
2023-02-05T00:27:58.396Z,13.29
2023-02-05T00:30:25.114Z,13.23
2023-02-05T00:32:51.845Z,13.50
2023-02-05T00:35:18.541Z,13.35
2023-02-05T00:37:45.584Z,13.12
2023-02-05T00:40:12.527Z,12.82
2023-02-05T00:42:39.457Z,12.53
2023-02-05T00:45:06.654Z,13.23
2023-02-05T00:47:33.420Z,13.34
2023-02-05T00:50:00.281Z,13.64
2023-02-05T00:52:29.310Z,12.89
2023-02-05T00:54:58.577Z,12.49
2023-02-05T00:57:28.142Z,12.81
2023-02-05T00:59:56.814Z,13.00
2023-02-05T01:02:25.242Z,12.66
2023-02-05T01:04:52.631Z,12.96
2023-02-05T01:07:20.505Z,12.95
2023-02-05T01:09:48.752Z,13.09
2023-02-05T01:12:15.902Z,12.96
2023-02-05T01:14:42.865Z,12.91
2023-02-05T01:17:10.441Z,13.34
2023-02-05T01:19:37.866Z,13.29
2023-02-05T01:22:06.642Z,12.05
2023-02-05T01:24:36.800Z,12.23
2023-02-05T01:27:12.703Z,12.90
2023-02-05T01:29:43.082Z,12.55
2023-02-05T01:32:09.839Z,12.69
2023-02-05T01:34:36.736Z,12.94
2023-02-05T01:37:03.642Z,12.76
2023-02-05T01:39:30.428Z,13.06
2023-02-05T01:41:57.499Z,13.25
2023-02-05T01:44:25.028Z,13.06
2023-02-05T01:46:55.559Z,13.39
2023-02-05T01:49:35.789Z,13.24
2023-02-05T01:52:06.729Z,12.73
2023-02-05T01:54:35.701Z,13.12
2023-02-05T01:57:10.018Z,12.64
2023-02-05T01:59:39.385Z,13.20
2023-02-05T02:02:07.288Z,12.94
2023-02-05T02:04:46.081Z,13.08
2023-02-05T02:07:16.325Z,12.89
2023-02-05T02:09:44.924Z,12.59
2023-02-05T02:12:13.904Z,12.85
2023-02-05T02:14:42.779Z,13.12
2023-02-05T02:17:11.790Z,13.01
2023-02-05T02:19:43.065Z,12.62
2023-02-05T02:22:40.879Z,12.59
2023-02-05T02:25:16.587Z,12.78
2023-02-05T02:27:50.693Z,12.55
2023-02-05T02:30:52.552Z,12.10
2023-02-05T02:33:27.184Z,12.46
2023-02-05T02:35:58.011Z,12.14
2023-02-05T02:38:37.975Z,11.90
2023-02-05T02:41:12.535Z,12.09
2023-02-05T02:43:45.570Z,12.26
2023-02-05T02:46:31.188Z,12.30
2023-02-05T02:49:02.008Z,12.59
2023-02-05T02:51:29.372Z,12.30
2023-02-05T02:53:58.364Z,12.51
2023-02-05T02:56:27.142Z,12.46
2023-02-05T02:58:57.615Z,12.47
2023-02-05T03:01:26.325Z,12.68
2023-02-05T03:03:58.831Z,12.65
2023-02-05T03:06:27.098Z,12.49
2023-02-05T03:09:04.729Z,12.57
2023-02-05T03:11:33.432Z,12.46
2023-02-05T03:14:00.487Z,12.29
2023-02-05T03:16:32.063Z,12.92
2023-02-05T03:18:58.983Z,12.86
2023-02-05T03:21:33.185Z,12.15
2023-02-05T03:24:00.136Z,12.46
2023-02-05T03:26:32.433Z,12.81
2023-02-05T03:29:15.974Z,12.97
2023-02-05T03:32:01.841Z,12.82
2023-02-05T03:34:37.616Z,12.16
2023-02-05T03:37:13.507Z,12.41
2023-02-05T03:40:05.622Z,12.71
2023-02-05T03:43:06.947Z,12.18
2023-02-05T03:45:50.312Z,12.29
2023-02-05T03:48:27.811Z,12.12
2023-02-05T03:51:02.974Z,12.52
2023-02-05T03:54:10.825Z,12.58
2023-02-05T03:56:49.287Z,12.42
2023-02-05T03:59:18.016Z,12.57
2023-02-05T04:01:46.143Z,12.47
2023-02-05T04:04:14.673Z,11.80
2023-02-05T04:06:41.541Z,12.54
2023-02-05T04:09:10.929Z,11.98
2023-02-05T04:11:38.921Z,12.22
2023-02-05T04:14:06.102Z,12.17
2023-02-05T04:16:33.789Z,12.57
2023-02-05T04:19:02.133Z,12.50
2023-02-05T04:21:29.730Z,12.69
2023-02-05T04:23:56.648Z,12.48
2023-02-05T04:26:24.932Z,12.54
2023-02-05T04:29:00.716Z,12.41
2023-02-05T04:31:29.701Z,12.25
2023-02-05T04:33:56.914Z,12.12
2023-02-05T04:36:24.816Z,11.92
2023-02-05T04:38:51.853Z,12.66
2023-02-05T04:41:20.786Z,12.71
2023-02-05T04:43:47.469Z,12.94
2023-02-05T04:46:14.392Z,11.72
2023-02-05T04:48:42.182Z,12.06
2023-02-05T04:51:13.401Z,12.03
2023-02-05T04:53:40.406Z,11.91
2023-02-05T04:56:15.366Z,12.10
2023-02-05T04:58:42.546Z,12.15
2023-02-05T05:01:18.162Z,12.26
2023-02-05T05:03:45.888Z,12.29
2023-02-05T05:06:13.475Z,12.33
2023-02-05T05:08:40.231Z,11.87
2023-02-05T05:11:10.129Z,11.81
2023-02-05T05:13:37.438Z,11.68
2023-02-05T05:16:05.578Z,12.08
2023-02-05T05:18:32.534Z,12.12
2023-02-05T05:20:59.499Z,11.79
2023-02-05T05:23:26.298Z,11.44
2023-02-05T05:25:53.505Z,11.97
2023-02-05T05:28:21.366Z,12.08
2023-02-05T05:30:48.325Z,11.70
2023-02-05T05:33:15.170Z,11.92
2023-02-05T05:35:42.150Z,12.03
2023-02-05T05:38:09.174Z,11.35
2023-02-05T05:40:54.424Z,12.07
2023-02-05T05:43:40.250Z,11.88
2023-02-05T05:46:07.578Z,11.15
2023-02-05T05:48:34.617Z,11.71
2023-02-05T05:51:01.418Z,11.61
2023-02-05T05:53:28.605Z,11.18
2023-02-05T05:55:55.333Z,11.55
2023-02-05T05:58:22.262Z,10.27
2023-02-05T06:00:49.098Z,11.15
2023-02-05T06:03:16.170Z,10.61
2023-02-05T06:05:43.127Z,11.52
2023-02-05T06:08:09.980Z,11.57
2023-02-05T06:10:36.954Z,11.22
2023-02-05T06:13:03.691Z,10.72
2023-02-05T06:15:30.660Z,10.97
2023-02-05T06:17:57.836Z,10.47
2023-02-05T06:20:24.650Z,10.35
2023-02-05T06:22:51.661Z,11.49
2023-02-05T06:25:18.781Z,11.52
2023-02-05T06:27:45.559Z,11.21
2023-02-05T06:30:13.177Z,11.37
2023-02-05T06:32:40.106Z,11.62
2023-02-05T06:35:07.549Z,11.48
2023-02-05T06:37:46.859Z,11.93
2023-02-05T06:40:15.903Z,11.15
2023-02-05T06:42:42.890Z,11.69
2023-02-05T06:45:10.426Z,11.47
2023-02-05T06:47:39.820Z,11.54
2023-02-05T06:50:08.102Z,11.63
2023-02-05T06:52:35.032Z,11.51
2023-02-05T06:55:01.857Z,11.81
2023-02-05T06:57:28.732Z,11.95
2023-02-05T06:59:55.493Z,11.86
2023-02-05T07:02:22.287Z,11.56
2023-02-05T07:04:49.070Z,11.21
2023-02-05T07:07:16.953Z,10.88
2023-02-05T07:09:44.402Z,10.87
2023-02-05T07:12:11.148Z,10.98
2023-02-05T07:14:38.956Z,11.11
2023-02-05T07:17:05.859Z,11.05
2023-02-05T07:19:32.624Z,10.90
2023-02-05T07:21:59.782Z,11.16
2023-02-05T07:24:26.725Z,10.67
2023-02-05T07:26:53.453Z,11.22
2023-02-05T07:29:20.470Z,10.71
2023-02-05T07:31:49.884Z,10.42
2023-02-05T07:34:17.404Z,10.80
2023-02-05T07:36:44.282Z,10.80
2023-02-05T07:39:11.187Z,10.91
2023-02-05T07:41:37.987Z,10.53
2023-02-05T07:44:05.485Z,10.46
2023-02-05T07:46:32.408Z,10.07
2023-02-05T07:48:59.128Z,10.33
2023-02-05T07:51:28.515Z,10.70
2023-02-05T07:54:11.824Z,10.48
2023-02-05T07:56:42.058Z,10.47
2023-02-05T07:59:10.818Z,10.65
2023-02-05T08:01:37.611Z,10.78
2023-02-05T08:04:04.654Z,10.31
2023-02-05T08:06:32.432Z,10.63
2023-02-05T08:08:59.306Z,10.85
2023-02-05T08:11:26.188Z,10.54
2023-02-05T08:13:53.956Z,10.58
2023-02-05T08:16:21.121Z,10.75
2023-02-05T08:18:49.397Z,10.76
2023-02-05T08:21:17.110Z,10.55
2023-02-05T08:23:44.164Z,10.85
2023-02-05T08:26:12.104Z,10.77
2023-02-05T08:28:38.945Z,10.75
2023-02-05T08:31:13.407Z,10.69
2023-02-05T08:33:40.438Z,10.54
2023-02-05T08:36:08.034Z,10.72
2023-02-05T08:38:34.888Z,10.91
2023-02-05T08:41:12.831Z,10.51
2023-02-05T08:43:45.571Z,10.66
2023-02-05T08:46:14.438Z,10.78
2023-02-05T08:48:41.942Z,10.88
2023-02-05T08:51:13.442Z,10.82
2023-02-05T08:53:41.651Z,10.81
2023-02-05T08:56:11.072Z,11.28
2023-02-05T08:58:39.211Z,11.21
2023-02-05T09:01:12.180Z,11.27
2023-02-05T09:03:39.113Z,11.06
2023-02-05T09:06:14.060Z,11.07
2023-02-05T09:08:41.155Z,11.45
2023-02-05T09:11:08.577Z,11.38
2023-02-05T09:13:39.335Z,11.70
2023-02-05T09:16:06.556Z,11.57
2023-02-05T09:18:33.484Z,11.65
2023-02-05T09:21:00.424Z,11.41
2023-02-05T09:23:27.335Z,11.15
2023-02-05T09:25:54.108Z,10.88
2023-02-05T09:28:21.596Z,10.77
2023-02-05T09:30:48.413Z,10.97
2023-02-05T09:33:15.532Z,11.20
2023-02-05T09:35:43.421Z,11.38
2023-02-05T09:38:17.052Z,10.60
2023-02-05T09:40:55.871Z,11.01
2023-02-05T09:43:44.144Z,10.84
2023-02-05T09:46:17.083Z,11.27
2023-02-05T09:48:52.042Z,11.36
2023-02-05T09:51:22.857Z,11.14
2023-02-05T09:53:56.890Z,11.20
2023-02-05T09:56:24.620Z,11.25
2023-02-05T09:58:52.634Z,10.96
2023-02-05T10:01:30.017Z,11.21
2023-02-05T10:04:00.223Z,11.34
2023-02-05T10:07:10.757Z,11.28
2023-02-05T10:09:49.537Z,11.06
2023-02-05T10:12:23.350Z,11.05
2023-02-05T10:14:56.178Z,10.99
2023-02-05T10:17:52.129Z,11.21
2023-02-05T10:20:29.586Z,11.03
2023-02-05T10:23:10.814Z,10.79
2023-02-05T10:25:50.350Z,10.83
2023-02-05T10:28:46.684Z,11.07
2023-02-05T10:31:19.249Z,10.95
2023-02-05T10:33:48.624Z,11.23
2023-02-05T10:36:15.953Z,11.16
2023-02-05T10:38:45.465Z,10.92
2023-02-05T10:41:17.735Z,10.89
2023-02-05T10:43:49.158Z,11.39
2023-02-05T10:46:18.221Z,11.25
2023-02-05T10:49:01.721Z,11.39
2023-02-05T10:51:32.462Z,11.12
2023-02-05T10:54:00.571Z,11.21
2023-02-05T10:56:27.343Z,11.63
2023-02-05T10:58:59.535Z,11.80
2023-02-05T11:01:32.466Z,11.63
2023-02-05T11:04:20.019Z,11.76
2023-02-05T11:06:51.961Z,11.97
2023-02-05T11:09:28.890Z,11.75
2023-02-05T11:11:58.772Z,11.47
2023-02-05T11:14:37.591Z,11.19
2023-02-05T11:17:07.956Z,11.51
2023-02-05T11:19:35.262Z,11.54
2023-02-05T11:22:04.835Z,11.19
2023-02-05T11:24:39.460Z,11.33
2023-02-05T11:27:15.619Z,11.23
2023-02-05T11:29:43.381Z,11.08
2023-02-05T11:32:37.842Z,11.58
2023-02-05T11:35:21.408Z,11.64
2023-02-05T11:37:59.553Z,11.65
2023-02-05T11:40:30.867Z,11.88
2023-02-05T11:43:01.873Z,11.65
2023-02-05T11:45:29.789Z,11.76
2023-02-05T11:47:57.556Z,11.40
2023-02-05T11:50:26.717Z,11.83
2023-02-05T11:52:54.898Z,11.82
2023-02-05T11:55:31.997Z,11.56
2023-02-05T11:58:01.818Z,11.79
2023-02-05T12:00:29.328Z,11.99
2023-02-05T12:03:16.646Z,11.68
2023-02-05T12:05:59.996Z,11.97
2023-02-05T12:08:32.662Z,11.70
2023-02-05T12:11:03.214Z,11.88
2023-02-05T12:14:02.213Z,11.49
2023-02-05T12:16:49.141Z,11.42
2023-02-05T12:19:23.080Z,11.63
2023-02-05T12:22:11.726Z,11.98
2023-02-05T12:24:50.302Z,12.00
2023-02-05T12:27:46.294Z,12.16
2023-02-05T12:30:31.433Z,12.25
2023-02-05T12:33:16.968Z,12.26
2023-02-05T12:35:52.623Z,11.86
2023-02-05T12:38:34.152Z,12.42
2023-02-05T12:41:18.662Z,12.10
2023-02-05T12:43:47.431Z,12.14
2023-02-05T12:46:26.254Z,11.88
2023-02-05T12:49:24.995Z,11.60
2023-02-05T12:52:18.541Z,12.02
2023-02-05T12:54:53.969Z,12.53
2023-02-05T12:57:24.285Z,11.86
2023-02-05T12:59:55.138Z,11.84
2023-02-05T13:02:34.025Z,12.05
2023-02-05T13:05:12.270Z,11.74
2023-02-05T13:07:46.143Z,12.14
2023-02-05T13:10:58.136Z,11.95
2023-02-05T13:13:36.082Z,12.64
2023-02-05T13:16:06.447Z,12.38
2023-02-05T13:18:37.068Z,12.25
2023-02-05T13:21:25.088Z,11.93
2023-02-05T13:24:12.437Z,12.00
2023-02-05T13:27:19.792Z,12.29
2023-02-05T13:29:51.580Z,12.55
2023-02-05T13:32:22.036Z,12.46
2023-02-05T13:34:49.022Z,12.45
2023-02-05T13:37:37.068Z,12.17
2023-02-05T13:40:32.314Z,12.24
2023-02-05T13:43:05.300Z,12.36
2023-02-05T13:45:38.404Z,11.97
2023-02-05T13:48:33.652Z,12.14
2023-02-05T13:51:28.249Z,12.32
2023-02-05T13:54:13.245Z,12.43
2023-02-05T13:57:10.567Z,12.35
2023-02-05T13:59:46.614Z,12.08
2023-02-05T14:02:32.624Z,12.02
2023-02-05T14:05:01.099Z,12.23
2023-02-05T14:07:30.280Z,12.24
2023-02-05T14:10:00.808Z,12.18
2023-02-05T14:12:49.849Z,11.80
2023-02-05T14:15:16.823Z,11.82
2023-02-05T14:17:43.464Z,11.85
2023-02-05T14:20:25.626Z,12.02
2023-02-05T14:23:02.584Z,12.04
2023-02-05T14:25:35.507Z,12.32
2023-02-05T14:28:08.783Z,12.54
2023-02-05T14:31:00.234Z,12.17
2023-02-05T14:33:32.712Z,11.87
2023-02-05T14:36:20.664Z,11.97
2023-02-05T14:39:00.978Z,12.21
2023-02-05T14:41:45.998Z,12.09
2023-02-05T14:44:12.923Z,11.71
2023-02-05T14:47:03.017Z,11.94
2023-02-05T14:49:32.986Z,12.15
2023-02-05T14:52:02.850Z,11.71
2023-02-05T14:54:40.500Z,12.17
2023-02-05T14:57:15.061Z,11.95
2023-02-05T15:00:04.011Z,11.85
2023-02-05T15:02:55.848Z,12.08
2023-02-05T15:05:35.173Z,11.89
2023-02-05T15:08:07.801Z,12.21
2023-02-05T15:10:42.877Z,12.36
2023-02-05T15:13:12.116Z,12.02
2023-02-05T15:15:39.290Z,11.89
2023-02-05T15:18:12.546Z,11.98
2023-02-05T15:20:41.731Z,11.81
2023-02-05T15:23:24.155Z,11.71
2023-02-05T15:26:13.713Z,11.68
2023-02-05T15:28:45.604Z,12.16
2023-02-05T15:31:17.360Z,12.16
2023-02-05T15:33:53.506Z,12.02
2023-02-05T15:36:27.275Z,11.81
2023-02-05T15:39:05.554Z,12.57
2023-02-05T15:41:36.113Z,12.36
2023-02-05T15:44:03.986Z,12.48
2023-02-05T15:46:32.724Z,12.33
2023-02-05T15:49:00.131Z,12.08
2023-02-05T15:51:31.874Z,12.53
2023-02-05T15:54:01.981Z,12.24
2023-02-05T15:56:37.692Z,11.98
2023-02-05T15:59:10.686Z,11.60
2023-02-05T16:01:39.986Z,11.48
2023-02-05T16:04:22.637Z,11.77
2023-02-05T16:06:49.509Z,11.34
2023-02-05T16:09:19.109Z,11.31
2023-02-05T16:11:48.276Z,11.75
2023-02-05T16:14:18.923Z,11.24
2023-02-05T16:17:10.025Z,11.39
2023-02-05T16:19:50.462Z,11.40
2023-02-05T16:22:26.418Z,11.69
2023-02-05T16:24:57.956Z,10.87
2023-02-05T16:27:36.185Z,10.77
2023-02-05T16:30:08.049Z,11.00
2023-02-05T16:32:42.427Z,11.34
2023-02-05T16:35:28.474Z,11.25
2023-02-05T16:37:55.947Z,11.05
2023-02-05T16:40:33.275Z,11.19
2023-02-05T16:43:00.259Z,11.17
2023-02-05T16:45:31.506Z,11.26
2023-02-05T16:48:24.377Z,11.25
2023-02-05T16:50:52.374Z,11.14
2023-02-05T16:53:26.592Z,11.36
2023-02-05T16:56:01.870Z,11.05
2023-02-05T16:58:36.898Z,10.85
2023-02-05T17:01:06.265Z,10.95
2023-02-05T17:03:39.812Z,10.88
2023-02-05T17:06:18.866Z,11.33
2023-02-05T17:08:55.290Z,10.96
2023-02-05T17:11:42.577Z,10.95
2023-02-05T17:14:26.249Z,11.09
2023-02-05T17:17:04.926Z,11.07
2023-02-05T17:19:33.469Z,11.16
2023-02-05T17:22:15.757Z,11.41
2023-02-05T17:24:47.081Z,11.40
2023-02-05T17:27:26.764Z,11.14
2023-02-05T17:29:53.729Z,11.13
2023-02-05T17:32:21.356Z,11.15
2023-02-05T17:34:48.457Z,11.13
2023-02-05T17:37:15.616Z,11.11
2023-02-05T17:39:42.815Z,11.35
2023-02-05T17:42:20.214Z,11.44
2023-02-05T17:44:47.123Z,11.03
2023-02-05T17:47:14.240Z,10.99
2023-02-05T17:49:42.037Z,10.78
2023-02-05T17:52:09.502Z,10.95
2023-02-05T17:54:36.591Z,10.67
2023-02-05T17:57:22.985Z,10.49
2023-02-05T17:59:50.290Z,11.14
2023-02-05T18:02:17.794Z,11.23
2023-02-05T18:04:45.362Z,11.09
2023-02-05T18:07:35.211Z,11.14
2023-02-05T18:10:02.424Z,11.06
2023-02-05T18:12:29.690Z,11.05
2023-02-05T18:14:56.422Z,11.09
2023-02-05T18:17:23.234Z,11.19
2023-02-05T18:19:50.849Z,11.21
2023-02-05T18:22:17.854Z,11.05
2023-02-05T18:24:44.750Z,11.14
2023-02-05T18:27:14.045Z,10.59
2023-02-05T18:29:42.738Z,10.57
2023-02-05T18:32:10.565Z,10.41
2023-02-05T18:34:37.669Z,10.65
2023-02-05T18:37:05.186Z,10.85
2023-02-05T18:39:32.105Z,10.70
2023-02-05T18:41:58.889Z,10.53
2023-02-05T18:44:26.736Z,10.59
2023-02-05T18:46:54.231Z,10.77
2023-02-05T18:49:21.262Z,10.70
2023-02-05T18:51:48.093Z,10.80
2023-02-05T18:54:15.093Z,10.66
2023-02-05T18:56:42.011Z,10.72
2023-02-05T18:59:56.200Z,10.79
2023-02-05T19:02:23.015Z,10.77
2023-02-05T19:04:55.802Z,10.66
2023-02-05T19:07:25.786Z,10.54
2023-02-05T19:09:56.544Z,10.48
2023-02-05T19:12:26.619Z,10.57
2023-02-05T19:14:56.847Z,10.34
2023-02-05T19:17:31.210Z,10.47
2023-02-05T19:20:01.246Z,10.86
2023-02-05T19:22:28.291Z,10.57
2023-02-05T19:24:55.087Z,10.55
2023-02-05T19:27:21.952Z,10.32
2023-02-05T19:29:50.641Z,10.29
2023-02-05T19:32:17.532Z,10.60
2023-02-05T19:34:46.695Z,10.73
2023-02-05T19:37:13.785Z,10.44
2023-02-05T19:39:40.660Z,10.59
2023-02-05T19:42:07.676Z,10.66
2023-02-05T19:44:34.691Z,10.53
2023-02-05T19:47:01.470Z,10.87
2023-02-05T19:49:28.325Z,11.01
2023-02-05T19:51:56.595Z,11.09
2023-02-05T19:54:23.579Z,11.15
2023-02-05T19:56:50.968Z,10.93
2023-02-05T19:59:17.928Z,10.82
2023-02-05T20:01:45.021Z,10.57
2023-02-05T20:04:17.526Z,10.67
2023-02-05T20:06:46.433Z,10.79
2023-02-05T20:09:14.550Z,10.76
2023-02-05T20:11:45.987Z,10.85
2023-02-05T20:14:13.436Z,10.70
2023-02-05T20:16:50.103Z,10.61
2023-02-05T20:19:17.809Z,10.82
2023-02-05T20:21:46.118Z,10.92
2023-02-05T20:24:13.730Z,10.81
2023-02-05T20:26:40.892Z,10.53
2023-02-05T20:29:26.370Z,10.62
2023-02-05T20:31:55.102Z,10.81
2023-02-05T20:34:25.918Z,10.67
2023-02-05T20:36:56.290Z,10.74
2023-02-05T20:39:25.159Z,10.70
2023-02-05T20:41:52.625Z,10.38
2023-02-05T20:44:20.130Z,10.43
2023-02-05T20:46:47.062Z,10.13
2023-02-05T20:49:14.261Z,10.15
2023-02-05T20:51:41.623Z,10.41
2023-02-05T20:54:31.214Z,10.29
2023-02-05T20:56:59.249Z,10.28
2023-02-05T20:59:27.820Z,10.25
2023-02-05T21:01:55.008Z,9.96
2023-02-05T21:04:22.734Z,10.32
2023-02-05T21:06:49.785Z,10.49
2023-02-05T21:09:17.230Z,10.49
2023-02-05T21:11:44.273Z,10.43
2023-02-05T21:14:11.780Z,10.51
2023-02-05T21:16:45.079Z,10.52
2023-02-05T21:19:12.463Z,10.47
2023-02-05T21:21:39.863Z,10.33
2023-02-05T21:24:09.426Z,10.46
2023-02-05T21:26:38.803Z,10.47
2023-02-05T21:29:08.302Z,10.40
2023-02-05T21:31:53.348Z,10.17
2023-02-05T21:34:22.666Z,10.18
2023-02-05T21:36:50.449Z,10.03
2023-02-05T21:39:20.316Z,10.18
2023-02-05T21:41:47.703Z,10.31
2023-02-05T21:44:14.662Z,10.26
2023-02-05T21:46:45.219Z,10.38
2023-02-05T21:49:15.376Z,10.09
2023-02-05T21:51:42.616Z,10.14
2023-02-05T21:54:10.945Z,10.31
2023-02-05T21:56:41.275Z,10.21
2023-02-05T21:59:08.529Z,10.34
2023-02-05T22:01:36.405Z,10.26
2023-02-05T22:04:06.944Z,10.35
2023-02-05T22:06:35.309Z,10.33
2023-02-05T22:09:04.415Z,10.15
2023-02-05T22:11:32.314Z,10.19
2023-02-05T22:13:59.813Z,10.23
2023-02-05T22:16:32.106Z,10.32
2023-02-05T22:19:01.229Z,10.24
2023-02-05T22:21:54.909Z,9.99
2023-02-05T22:24:25.049Z,10.16
2023-02-05T22:26:52.618Z,10.35
2023-02-05T22:29:20.759Z,10.21
2023-02-05T22:31:52.311Z,10.29
2023-02-05T22:34:19.483Z,10.32
2023-02-05T22:36:46.469Z,10.15
2023-02-05T22:39:13.412Z,9.98
2023-02-05T22:41:42.772Z,10.12
2023-02-05T22:44:11.104Z,9.97
2023-02-05T22:46:40.570Z,10.11
2023-02-05T22:49:07.460Z,9.92
2023-02-05T22:51:37.142Z,9.85
2023-02-05T22:54:04.992Z,9.88
2023-02-05T22:56:32.323Z,9.99
2023-02-05T22:59:02.054Z,9.99
2023-02-05T23:01:32.690Z,10.02
2023-02-05T23:03:59.829Z,10.20
2023-02-05T23:06:34.330Z,10.09
2023-02-05T23:09:23.636Z,9.99
2023-02-05T23:11:50.464Z,10.00
2023-02-05T23:14:17.658Z,9.95
2023-02-05T23:16:46.100Z,10.01
2023-02-05T23:19:16.768Z,9.85
2023-02-05T23:21:45.776Z,10.05
2023-02-05T23:24:13.187Z,10.11
2023-02-05T23:26:42.830Z,9.80
2023-02-05T23:29:11.293Z,9.72
2023-02-05T23:31:38.917Z,9.70
2023-02-05T23:34:10.396Z,9.93
2023-02-05T23:36:37.378Z,9.87
2023-02-05T23:39:05.794Z,9.87
2023-02-05T23:41:36.291Z,9.91
2023-02-05T23:44:11.066Z,9.82
2023-02-05T23:46:38.662Z,9.83
2023-02-05T23:49:08.938Z,9.84
2023-02-05T23:51:35.784Z,9.92
2023-02-05T23:54:03.001Z,9.67
2023-02-05T23:56:43.838Z,9.66
2023-02-05T23:59:12.411Z,9.82
